Time;durP1;ratioP1;P1;durP2;ratioP2;P2;SDS_P1;SDS_P2;PMS_P1;PMS_P2;Temp;Humidity;BMP_temperature;BMP_pressure;BME280_temperature;BME280_humidity;BME280_pressure;Samples;Min_cycle;Max_cycle;Signal;HPM_P1;HPM_P2
2024/02/08 00:00:11;;;;;;;1.33;1.23;;;22.30;53.30;;;;;;6122887;22;88237;-60
2024/02/08 00:02:37;;;;;;;3.03;1.73;;;22.20;53.40;;;;;;6098017;22;89777;-60
2024/02/08 00:05:06;;;;;;;1.55;1.15;;;22.20;53.50;;;;;;6122836;22;87702;-59
2024/02/08 00:07:32;;;;;;;2.10;1.25;;;22.20;53.50;;;;;;6147457;22;86935;-59
2024/02/08 00:09:58;;;;;;;2.15;1.30;;;22.20;53.20;;;;;;6122228;22;87378;-59
2024/02/08 00:12:25;;;;;;;2.15;1.50;;;22.10;53.30;;;;;;6120472;22;88763;-59
2024/02/08 00:14:51;;;;;;;1.85;1.30;;;22.10;53.40;;;;;;6146947;22;87536;-59
2024/02/08 00:17:20;;;;;;;1.83;1.38;;;22.10;53.40;;;;;;6097723;22;87352;-59
2024/02/08 00:19:49;;;;;;;1.30;1.20;;;22.10;53.40;;;;;;6147476;22;87442;-59
2024/02/08 00:22:20;;;;;;;3.10;1.33;;;22.10;53.40;;;;;;6120993;22;88807;-59
2024/02/08 00:24:46;;;;;;;2.58;1.73;;;22.00;53.40;;;;;;6121994;22;87721;-59
2024/02/08 00:27:12;;;;;;;1.30;1.15;;;22.10;53.40;;;;;;6148068;22;88457;-60
2024/02/08 00:29:44;;;;;;;3.17;1.83;;;22.00;53.50;;;;;;6122927;22;87022;-59
2024/02/08 00:32:09;;;;;;;1.50;1.40;;;22.00;53.60;;;;;;6120156;22;88316;-59
2024/02/08 00:34:38;;;;;;;2.17;1.52;;;22.00;53.60;;;;;;6149061;22;87432;-59
2024/02/08 00:37:07;;;;;;;2.47;1.27;;;21.90;53.50;;;;;;6148827;22;87468;-59
2024/02/08 00:39:34;;;;;;;2.63;1.30;;;22.00;53.60;;;;;;6146980;22;86988;-59
2024/02/08 00:42:01;;;;;;;2.50;1.33;;;21.90;53.50;;;;;;6096345;22;88358;-59
2024/02/08 00:44:28;;;;;;;1.23;1.13;;;21.90;53.60;;;;;;6123707;22;88069;-59
2024/02/08 00:46:55;;;;;;;1.40;1.10;;;21.90;53.60;;;;;;6144875;22;87886;-59
2024/02/08 00:49:23;;;;;;;1.70;1.20;;;21.90;53.60;;;;;;6114688;22;88857;-59
2024/02/08 00:51:49;;;;;;;1.90;1.33;;;21.90;53.60;;;;;;6121818;22;88347;-59
2024/02/08 00:54:16;;;;;;;2.20;1.20;;;21.80;53.50;;;;;;6149259;22;88142;-60
2024/02/08 00:56:42;;;;;;;2.38;1.48;;;21.80;53.50;;;;;;6123183;22;87459;-60
2024/02/08 00:59:09;;;;;;;1.70;1.38;;;21.80;53.50;;;;;;6148730;22;87308;-59
2024/02/08 01:01:36;;;;;;;2.00;1.52;;;21.80;53.70;;;;;;6149012;22;88423;-59
2024/02/08 01:04:03;;;;;;;2.83;1.50;;;21.80;53.60;;;;;;6149132;22;87848;-60
2024/02/08 01:06:30;;;;;;;1.52;1.10;;;21.70;53.60;;;;;;6122201;22;86934;-60
2024/02/08 01:08:56;;;;;;;1.92;1.13;;;21.70;53.40;;;;;;6121553;22;86686;-59
2024/02/08 01:11:23;;;;;;;1.50;1.10;;;21.70;53.70;;;;;;6120835;22;88851;-59
2024/02/08 01:13:49;;;;;;;1.42;1.13;;;21.70;53.50;;;;;;6148265;22;87662;-60
2024/02/08 01:16:15;;;;;;;2.08;1.70;;;21.70;53.70;;;;;;6147966;22;88425;-60
2024/02/08 01:18:41;;;;;;;2.15;1.50;;;21.70;53.70;;;;;;6097306;22;87562;-60
2024/02/08 01:21:10;;;;;;;2.20;1.25;;;21.60;53.60;;;;;;6147640;22;87490;-60
2024/02/08 01:23:37;;;;;;;1.23;1.10;;;21.60;53.60;;;;;;6147251;22;88556;-60
2024/02/08 01:26:03;;;;;;;1.10;1.00;;;21.60;53.70;;;;;;6120614;22;87290;-61
2024/02/08 01:28:29;;;;;;;2.03;1.50;;;21.60;53.70;;;;;;6121334;22;87284;-59
2024/02/08 01:30:56;;;;;;;1.42;1.13;;;21.60;54.30;;;;;;6120803;22;88531;-60
2024/02/08 01:33:21;;;;;;;1.70;1.40;;;21.60;53.80;;;;;;6120508;22;87717;-59
2024/02/08 01:35:47;;;;;;;1.50;1.40;;;21.50;53.70;;;;;;6121145;22;87483;-60
2024/02/08 01:38:16;;;;;;;2.08;1.33;;;21.50;53.60;;;;;;6147640;22;87753;-60
2024/02/08 01:40:42;;;;;;;3.40;1.50;;;21.50;53.60;;;;;;6145156;22;89057;-59
2024/02/08 01:43:08;;;;;;;1.80;1.45;;;21.50;53.60;;;;;;6147784;22;89032;-60
2024/02/08 01:45:34;;;;;;;1.33;1.23;;;21.50;53.60;;;;;;6148822;22;88344;-59
2024/02/08 01:48:10;;;;;;;1.83;1.30;;;21.50;53.60;;;;;;6097784;22;87643;-60
2024/02/08 01:50:38;;;;;;;1.98;1.55;;;21.50;53.80;;;;;;6150182;22;87351;-60
2024/02/08 01:53:24;;;;;;;1.70;1.60;;;21.50;53.60;;;;;;6120959;22;87888;-60
2024/02/08 01:55:50;;;;;;;1.88;1.45;;;21.40;53.70;;;;;;6147365;22;87363;-59
2024/02/08 01:58:16;;;;;;;1.80;1.30;;;21.50;53.60;;;;;;6149030;22;86756;-60
2024/02/08 02:00:49;;;;;;;1.67;1.10;;;21.40;53.80;;;;;;6120632;22;89354;-59
2024/02/08 02:03:15;;;;;;;1.38;1.20;;;21.40;53.70;;;;;;6144174;22;87820;-60
2024/02/08 02:05:42;;;;;;;2.03;1.30;;;21.40;53.60;;;;;;6148527;22;88060;-60
2024/02/08 02:08:10;;;;;;;2.67;1.75;;;21.40;53.70;;;;;;6121160;22;88247;-60
2024/02/08 02:10:38;;;;;;;1.38;1.27;;;21.30;53.60;;;;;;6119863;22;89281;-60
2024/02/08 02:13:10;;;;;;;2.22;1.30;;;21.30;53.70;;;;;;6148550;22;87756;-60
2024/02/08 02:15:37;;;;;;;1.60;1.48;;;21.30;53.70;;;;;;6147822;22;87857;-59
2024/02/08 02:18:07;;;;;;;2.08;1.40;;;21.30;53.80;;;;;;6149046;22;88126;-59
2024/02/08 02:20:33;;;;;;;2.53;1.30;;;21.30;53.70;;;;;;6120779;22;87967;-59
2024/02/08 02:23:00;;;;;;;2.83;1.42;;;21.30;53.70;;;;;;6147328;22;87830;-60
2024/02/08 02:25:32;;;;;;;1.30;1.20;;;21.30;53.70;;;;;;6120156;22;87662;-60
2024/02/08 02:27:58;;;;;;;2.10;1.30;;;21.30;53.60;;;;;;6147999;22;87340;-60
2024/02/08 02:30:27;;;;;;;1.52;1.20;;;21.30;53.70;;;;;;6120104;22;88420;-60
2024/02/08 02:32:55;;;;;;;1.60;1.20;;;21.20;53.60;;;;;;6122400;22;89393;-59
2024/02/08 02:35:22;;;;;;;2.20;1.80;;;21.20;53.60;;;;;;6144385;22;87196;-59
2024/02/08 02:37:51;;;;;;;1.73;1.30;;;21.20;53.60;;;;;;6147086;22;87213;-60
2024/02/08 02:40:22;;;;;;;1.47;1.20;;;21.20;53.70;;;;;;6149114;22;88660;-59
2024/02/08 02:42:52;;;;;;;1.50;1.00;;;21.20;53.70;;;;;;6148838;22;87774;-59
2024/02/08 02:45:23;;;;;;;1.92;1.20;;;21.20;53.80;;;;;;6122724;22;87314;-60
2024/02/08 02:47:49;;;;;;;2.75;1.35;;;21.20;53.80;;;;;;6150631;22;86708;-59
2024/02/08 02:50:18;;;;;;;1.70;1.33;;;21.20;53.60;;;;;;6122459;22;89469;-59
2024/02/08 02:52:45;;;;;;;1.63;1.00;;;21.10;53.60;;;;;;6149829;22;87818;-60
2024/02/08 02:55:12;;;;;;;1.15;1.05;;;21.20;53.70;;;;;;6121696;22;88210;-59
2024/02/08 02:57:42;;;;;;;1.40;1.30;;;21.20;53.60;;;;;;6149373;22;87217;-59
2024/02/08 03:00:21;;;;;;;2.65;1.40;;;21.10;53.60;;;;;;6150454;22;89389;-59
2024/02/08 03:02:57;;;;;;;1.30;1.20;;;21.10;53.60;;;;;;6150301;22;87733;-59
2024/02/08 03:05:24;;;;;;;1.35;1.20;;;21.10;53.90;;;;;;6118225;23;87419;-59
2024/02/08 03:07:50;;;;;;;1.73;1.27;;;21.10;53.60;;;;;;6092186;23;87779;-59
2024/02/08 03:10:20;;;;;;;1.38;1.10;;;21.10;53.60;;;;;;6118763;23;87596;-59
2024/02/08 03:12:49;;;;;;;;;;;21.10;53.70;;;;;;6120525;23;87710;-58
2024/02/08 03:15:16;;;;;;;2.17;1.35;;;21.10;53.70;;;;;;6120006;23;86902;-59
2024/02/08 03:17:43;;;;;;;1.77;1.35;;;21.10;53.70;;;;;;6120050;23;87195;-59
2024/02/08 03:20:11;;;;;;;1.23;1.10;;;21.00;53.70;;;;;;6115615;23;89204;-58
2024/02/08 03:22:37;;;;;;;1.27;1.10;;;21.00;53.70;;;;;;6118179;23;89356;-59
2024/02/08 03:25:05;;;;;;;1.40;1.30;;;21.00;53.70;;;;;;6091760;23;87526;-59
2024/02/08 03:27:32;;;;;;;1.52;1.27;;;21.00;53.80;;;;;;6092491;23;87306;-59
2024/02/08 03:30:02;;;;;;;1.55;1.13;;;21.00;53.70;;;;;;6118582;23;88860;-59
2024/02/08 03:32:30;;;;;;;1.70;1.42;;;21.00;53.70;;;;;;6149368;22;92014;-59
2024/02/08 03:34:56;;;;;;;1.38;1.25;;;21.00;53.90;;;;;;6149856;22;87418;-59
2024/02/08 03:37:23;;;;;;;1.88;1.40;;;21.00;53.60;;;;;;6122492;22;88128;-59
2024/02/08 03:39:49;;;;;;;1.85;1.10;;;21.00;53.50;;;;;;6148225;22;88801;-59
2024/02/08 03:42:16;;;;;;;1.42;1.33;;;21.00;53.70;;;;;;6122477;22;90255;-59
2024/02/08 03:44:42;;;;;;;2.10;1.23;;;20.90;53.60;;;;;;6149111;22;88298;-59
2024/02/08 03:47:09;;;;;;;1.55;1.27;;;20.90;53.60;;;;;;6148018;22;87401;-59
2024/02/08 03:49:35;;;;;;;2.25;1.25;;;20.90;53.50;;;;;;6144617;22;88550;-59
2024/02/08 03:52:04;;;;;;;1.20;1.10;;;20.90;53.60;;;;;;6122675;22;88564;-59
2024/02/08 03:54:30;;;;;;;2.00;1.27;;;20.90;53.60;;;;;;6119570;22;87363;-59
2024/02/08 03:56:59;;;;;;;2.03;1.50;;;20.90;53.70;;;;;;6123287;22;87623;-59
2024/02/08 03:59:28;;;;;;;0.98;0.90;;;20.90;53.50;;;;;;6148319;22;92447;-59
2024/02/08 04:02:01;;;;;;;1.20;1.10;;;20.90;53.60;;;;;;6122986;22;89178;-59
2024/02/08 04:04:29;;;;;;;1.98;1.40;;;20.80;53.50;;;;;;6122234;22;88451;-59
2024/02/08 04:07:19;;;;;;;1.40;1.30;;;20.80;53.50;;;;;;6146089;22;87268;-59
2024/02/08 04:09:50;;;;;;;1.42;1.10;;;20.80;53.60;;;;;;6148082;22;90111;-59
2024/02/08 04:53:43;;;;;;;1.60;1.30;;;20.70;53.50;;;;;;6147677;22;91847;-59
2024/02/08 04:56:10;;;;;;;1.37;1.20;;;20.70;53.70;;;;;;6122099;22;88039;-59
2024/02/08 04:58:39;;;;;;;1.35;1.25;;;20.60;53.60;;;;;;6150058;22;87183;-59
2024/02/08 05:01:10;;;;;;;1.35;1.25;;;20.60;53.60;;;;;;6147875;22;87590;-59
2024/02/08 05:03:38;;;;;;;2.45;1.60;;;20.60;53.50;;;;;;6123110;22;88325;-59
2024/02/08 05:06:10;;;;;;;1.63;1.20;;;20.60;53.60;;;;;;6148269;22;89586;-58
2024/02/08 05:08:38;;;;;;;1.50;1.40;;;20.60;54.10;;;;;;6148333;22;87372;-59
2024/02/08 05:11:03;;;;;;;1.35;1.10;;;20.60;53.40;;;;;;6148797;22;87251;-59
2024/02/08 05:13:29;;;;;;;1.77;1.30;;;20.60;53.40;;;;;;6121424;22;88877;-59
2024/02/08 05:15:56;;;;;;;1.10;1.00;;;20.60;53.40;;;;;;6148035;22;87730;-59
2024/02/08 05:18:25;;;;;;;1.27;1.17;;;20.60;53.50;;;;;;6148527;22;87389;-59
2024/02/08 05:20:50;;;;;;;1.58;1.15;;;20.60;53.40;;;;;;6148085;22;87190;-58
2024/02/08 05:23:17;;;;;;;1.77;1.20;;;20.60;53.50;;;;;;6148300;22;87353;-59
2024/02/08 05:25:44;;;;;;;1.20;1.10;;;20.60;53.40;;;;;;6120950;22;89103;-59
2024/02/08 05:28:11;;;;;;;1.85;1.58;;;20.60;53.50;;;;;;6121384;22;88041;-59
2024/02/08 05:30:36;;;;;;;1.73;1.15;;;20.60;53.60;;;;;;6121894;22;87713;-59
2024/02/08 05:33:02;;;;;;;1.33;1.20;;;20.50;53.50;;;;;;6121949;22;89602;-59
2024/02/08 05:35:32;;;;;;;1.45;1.20;;;20.60;53.50;;;;;;6149989;22;87295;-59
2024/02/08 05:38:00;;;;;;;1.48;1.17;;;20.50;53.60;;;;;;6121881;22;87263;-59
2024/02/08 05:40:30;;;;;;;1.30;1.20;;;20.50;54.30;;;;;;6148491;22;87637;-59
2024/02/08 05:42:57;;;;;;;1.30;0.90;;;20.50;53.20;;;;;;6148385;22;88093;-59
2024/02/08 05:45:30;;;;;;;1.70;1.40;;;20.50;53.00;;;;;;6148291;22;88696;-59
2024/02/08 05:48:00;;;;;;;1.88;1.30;;;20.50;53.10;;;;;;6150504;22;87233;-58
2024/02/08 05:50:26;;;;;;;1.98;1.38;;;20.50;53.10;;;;;;6095753;22;92515;-59
2024/02/08 05:52:56;;;;;;;1.42;1.30;;;20.50;53.10;;;;;;6121030;22;89598;-59
2024/02/08 05:55:25;;;;;;;2.45;1.40;;;20.50;53.10;;;;;;6148106;22;88725;-59
2024/02/08 05:57:58;;;;;;;1.60;1.30;;;20.50;53.10;;;;;;6095578;22;87294;-59
2024/02/08 06:00:36;;;;;;;1.15;1.05;;;20.40;53.00;;;;;;6149023;22;87280;-59
2024/02/08 06:03:03;;;;;;;1.52;1.35;;;20.50;53.10;;;;;;6098915;22;89756;-59
2024/02/08 06:05:31;;;;;;;2.05;1.50;;;20.40;52.90;;;;;;6148474;22;87511;-58
2024/02/08 06:08:02;;;;;;;1.50;1.40;;;20.40;52.90;;;;;;6148800;22;87402;-58
2024/02/08 06:10:52;;;;;;;1.95;1.20;;;20.40;52.90;;;;;;6121091;22;88416;-59
2024/02/08 06:13:15;;;;;;;1.58;1.48;;;20.40;52.80;;;;;;6148195;22;87858;-58
2024/02/08 06:15:43;;;;;;;2.05;1.33;;;20.40;52.80;;;;;;6143867;22;87765;-59
2024/02/08 06:18:19;;;;;;;2.58;1.90;;;20.40;52.80;;;;;;6147383;22;88741;-59
2024/02/08 06:20:51;;;;;;;1.60;1.25;;;20.40;52.80;;;;;;6126451;22;87257;-58
2024/02/08 06:23:27;;;;;;;1.80;1.52;;;20.40;52.90;;;;;;6121762;22;88876;-56
2024/02/08 06:28:46;;;;;;;1.55;1.38;;;20.40;53.00;;;;;;6147731;22;87420;-59
2024/02/08 06:31:17;;;;;;;3.15;1.38;;;20.40;52.80;;;;;;6147421;22;86828;-59
2024/02/08 06:36:58;;;;;;;1.50;1.40;;;20.40;53.10;;;;;;6150699;22;86968;-59
2024/02/08 06:39:28;;;;;;;1.73;1.20;;;20.40;53.60;;;;;;6149804;22;87312;-59
2024/02/08 06:42:07;;;;;;;1.23;1.13;;;20.40;53.50;;;;;;6150531;22;87278;-59
2024/02/08 06:47:20;;;;;;;1.58;1.40;;;20.50;53.40;;;;;;6119814;22;88926;-59
2024/02/08 07:41:54;;;;;;;1.40;1.30;;;20.80;53.00;;;;;;6119701;23;87819;-59
2024/02/08 07:44:30;;;;;;;4.43;1.30;;;20.80;52.90;;;;;;6117566;22;87148;-59
2024/02/08 07:46:56;;;;;;;1.25;1.15;;;20.90;52.90;;;;;;6113232;22;87580;-60
2024/02/08 07:49:41;;;;;;;3.60;1.42;;;21.00;52.70;;;;;;6117836;22;88140;-59
2024/02/08 07:52:14;;;;;;;5.40;1.88;;;21.10;52.60;;;;;;6117172;22;87441;-59
2024/02/08 07:54:42;;;;;;;6.45;1.70;;;21.20;52.50;;;;;;6119035;22;87072;-60
2024/02/08 07:57:11;;;;;;;5.65;1.58;;;21.30;52.60;;;;;;6112337;22;86550;-60
2024/02/08 07:59:42;;;;;;;;;;;21.30;52.70;;;;;;6119297;22;88015;-60
2024/02/08 08:02:12;;;;;;;4.35;1.75;;;21.30;52.90;;;;;;6093539;23;90407;-59
2024/02/08 08:04:53;;;;;;;4.13;1.88;;;21.40;52.90;;;;;;6119253;22;88377;-59
2024/02/08 08:07:25;;;;;;;4.63;1.58;;;21.50;53.00;;;;;;6119380;22;87276;-59
2024/02/08 08:09:59;;;;;;;2.75;1.58;;;21.50;53.20;;;;;;6115830;22;88037;-59
2024/02/08 08:12:28;;;;;;;5.50;1.83;;;21.50;53.30;;;;;;6115623;22;87644;-59
2024/02/08 08:19:54;;;;;;;7.38;2.72;;;21.60;53.60;;;;;;6117723;22;88119;-60
2024/02/08 08:28:10;;;;;;;8.35;2.08;;;21.70;53.70;;;;;;6118525;22;87671;-59
2024/02/08 08:30:39;;;;;;;3.10;1.60;;;21.70;53.80;;;;;;6116780;22;89620;-59
2024/02/08 08:35:50;;;;;;;3.50;2.08;;;21.70;53.70;;;;;;6119156;23;87690;-59
2024/02/08 08:41:00;;;;;;;7.40;2.70;;;21.80;53.30;;;;;;6118412;22;87736;-60
2024/02/08 08:43:26;;;;;;;7.47;3.47;;;21.80;53.50;;;;;;6119165;22;87811;-59
2024/02/08 08:45:59;;;;;;;6.90;2.85;;;21.80;52.00;;;;;;6091179;23;87272;-59
2024/02/08 08:48:33;;;;;;;6.38;2.83;;;21.80;52.10;;;;;;6117862;22;89510;-59
2024/02/08 08:51:10;;;;;;;5.72;2.83;;;21.80;51.90;;;;;;6120238;22;88204;-60
2024/02/08 08:53:43;;;;;;;5.93;3.00;;;21.80;51.50;;;;;;6118677;23;87602;-60
2024/02/08 08:56:10;;;;;;;6.97;2.95;;;21.80;51.90;;;;;;6116507;22;88323;-60
2024/02/08 08:58:40;;;;;;;5.38;2.40;;;21.80;51.10;;;;;;6116861;22;87544;-59
2024/02/08 09:01:15;;;;;;;6.95;3.03;;;21.90;51.40;;;;;;6116312;22;89386;-59
2024/02/08 09:03:43;;;;;;;6.63;2.95;;;21.90;51.40;;;;;;6119050;22;88269;-60
2024/02/08 09:06:12;;;;;;;6.38;3.15;;;21.90;51.30;;;;;;6115407;22;87539;-60
2024/02/08 09:08:43;;;;;;;5.18;2.55;;;21.90;51.30;;;;;;6119724;22;88279;-60
2024/02/08 09:11:13;;;;;;;8.57;3.00;;;21.90;51.30;;;;;;6107505;22;87992;-59
2024/02/08 09:13:42;;;;;;;5.70;2.90;;;21.90;51.50;;;;;;6118545;22;88230;-59
2024/02/08 09:16:29;;;;;;;5.35;2.30;;;21.90;51.40;;;;;;6118525;22;87334;-60
2024/02/08 09:21:35;;;;;;;4.80;2.45;;;21.90;51.60;;;;;;6119862;22;88750;-57
2024/02/08 09:24:17;;;;;;;4.18;2.05;;;21.90;52.10;;;;;;6114888;22;89192;-60
2024/02/08 09:26:52;;;;;;;7.93;2.95;;;22.00;51.70;;;;;;6121126;22;87326;-59
2024/02/08 09:29:23;;;;;;;7.10;2.70;;;22.00;51.90;;;;;;6120180;22;87745;-60
2024/02/08 09:31:56;;;;;;;5.25;1.83;;;22.00;52.00;;;;;;6119434;22;88042;-59
2024/02/08 09:34:53;;;;;;;5.70;2.20;;;22.00;52.10;;;;;;6116306;22;89337;-57
2024/02/08 09:37:17;;;;;;;3.08;1.60;;;22.10;52.40;;;;;;6119338;22;87207;-55
2024/02/08 09:39:58;;;;;;;3.97;1.75;;;22.10;52.30;;;;;;6113629;22;89038;-58
2024/02/08 09:42:27;;;;;;;7.47;3.03;;;22.20;52.40;;;;;;6117506;22;88026;-55
2024/02/08 09:47:52;;;;;;;6.87;2.80;;;22.20;52.50;;;;;;6116636;23;87996;-57
2024/02/08 09:50:35;;;;;;;5.60;1.90;;;22.20;52.50;;;;;;6116035;22;87396;-58
2024/02/08 09:53:15;;;;;;;7.45;2.45;;;22.20;52.70;;;;;;6117784;22;87995;-58
2024/02/08 09:55:48;;;;;;;4.22;2.00;;;22.20;53.00;;;;;;6118473;22;88194;-57
2024/02/08 09:58:30;;;;;;;5.22;2.50;;;22.20;53.30;;;;;;6117313;22;86825;-58
2024/02/08 10:00:58;;;;;;;6.75;2.28;;;22.20;53.40;;;;;;6118231;22;87433;-57
2024/02/08 10:03:36;;;;;;;8.18;2.67;;;22.30;53.50;;;;;;6114342;22;88293;-58
2024/02/08 10:06:24;;;;;;;6.22;2.50;;;22.30;53.50;;;;;;6116441;22;88169;-55
2024/02/08 10:08:56;;;;;;;5.15;2.03;;;22.30;53.50;;;;;;6117933;23;88060;-57
2024/02/08 10:11:35;;;;;;;5.75;2.00;;;22.40;53.60;;;;;;6115372;22;87350;-59
2024/02/08 10:14:02;;;;;;;7.63;2.70;;;22.40;53.40;;;;;;6117766;22;89480;-57
2024/02/08 10:16:29;;;;;;;4.57;2.17;;;22.40;53.60;;;;;;6113516;22;88084;-58
2024/02/08 10:19:23;;;;;;;5.70;2.60;;;22.40;53.80;;;;;;6118125;22;87444;-56
2024/02/08 10:27:22;;;;;;;6.13;2.15;;;22.50;53.60;;;;;;6117588;22;87594;-58
2024/02/08 10:29:50;;;;;;;3.35;2.05;;;22.50;53.60;;;;;;6120229;22;87299;-60
2024/02/08 10:32:19;;;;;;;8.93;2.63;;;22.50;53.40;;;;;;6119677;22;87343;-55
2024/02/08 10:34:52;;;;;;;3.10;1.90;;;22.50;53.50;;;;;;6116568;22;88887;-59
2024/02/08 10:38:07;;;;;;;2.50;1.58;;;22.50;53.50;;;;;;6118367;22;88035;-59
2024/02/08 10:40:28;;;;;;;4.28;1.88;;;22.50;53.50;;;;;;6104482;22;88363;-58
2024/02/08 10:42:58;;;;;;;4.78;2.03;;;22.50;53.70;;;;;;6118671;22;86935;-58
2024/02/08 10:45:25;;;;;;;4.07;1.95;;;22.40;53.70;;;;;;6116785;22;87925;-60
2024/02/08 10:47:55;;;;;;;4.82;1.98;;;22.40;53.80;;;;;;6115782;22;88917;-59
2024/02/08 10:50:27;;;;;;;4.55;2.40;;;22.40;53.90;;;;;;6118796;22;87373;-56
2024/02/08 10:53:00;;;;;;;4.78;2.17;;;22.50;54.10;;;;;;6117691;22;87366;-60
2024/02/08 10:55:39;;;;;;;5.75;2.70;;;22.40;54.00;;;;;;6117004;22;87241;-58
2024/02/08 11:03:52;;;;;;;41.53;8.18;;;22.50;54.20;;;;;;6120428;22;87582;-59
2024/02/08 11:06:32;;;;;;;33.28;7.72;;;22.40;54.40;;;;;;6116672;22;88963;-58
2024/02/08 11:09:31;;;;;;;;;;;22.40;54.40;;;;;;6118726;22;87781;-60
2024/02/08 11:12:03;;;;;;;27.77;7.15;;;22.40;54.50;;;;;;6115802;23;87300;-59
2024/02/08 11:14:40;;;;;;;;;;;22.30;54.60;;;;;;6118517;23;90992;-58
2024/02/08 11:17:24;;;;;;;32.13;7.57;;;22.20;54.70;;;;;;6118222;22;89044;-59
2024/02/08 11:19:58;;;;;;;31.10;6.38;;;22.20;54.70;;;;;;6117447;22;88269;-59
2024/02/08 11:22:40;;;;;;;37.70;8.10;;;22.10;54.90;;;;;;6117805;22;86938;-59
2024/02/08 11:25:36;;;;;;;40.15;7.60;;;22.10;54.90;;;;;;6117756;22;87207;-59
2024/02/08 11:28:13;;;;;;;25.00;7.07;;;22.10;55.00;;;;;;6119608;22;87878;-58
2024/02/08 11:30:40;;;;;;;27.65;8.27;;;22.00;54.90;;;;;;6120336;22;87347;-58
2024/02/08 11:33:13;;;;;;;29.65;7.68;;;22.00;54.90;;;;;;6117689;22;87829;-58
2024/02/08 11:35:54;;;;;;;26.48;7.15;;;21.90;54.80;;;;;;6120831;22;87406;-59
2024/02/08 11:38:27;;;;;;;24.45;7.43;;;22.00;54.90;;;;;;6120419;22;88521;-58
2024/02/08 11:40:57;;;;;;;29.38;7.05;;;21.90;54.80;;;;;;6120250;22;87810;-59
2024/02/08 11:43:24;;;;;;;34.22;7.60;;;21.90;55.10;;;;;;6120652;22;87441;-59
2024/02/08 11:45:56;;;;;;;30.17;7.10;;;21.90;55.00;;;;;;6120227;22;87310;-59
2024/02/08 11:48:30;;;;;;;23.00;7.53;;;21.90;55.10;;;;;;6119820;22;87902;-59
2024/02/08 11:51:09;;;;;;;31.70;7.55;;;21.80;54.80;;;;;;6117749;22;88669;-59
2024/02/08 11:53:37;;;;;;;26.40;7.47;;;21.80;54.90;;;;;;6119478;23;86960;-59
2024/02/08 11:56:10;;;;;;;27.10;6.80;;;21.80;55.00;;;;;;6117453;22;87511;-59
2024/02/08 11:58:44;;;;;;;22.92;6.95;;;21.80;55.00;;;;;;6116641;22;90248;-59
2024/02/08 12:01:14;;;;;;;25.67;7.38;;;21.70;55.00;;;;;;6120214;22;88078;-59
2024/02/08 12:03:51;;;;;;;20.48;6.78;;;21.70;55.10;;;;;;6120475;22;86919;-59
2024/02/08 12:06:22;;;;;;;20.60;6.20;;;21.70;55.20;;;;;;6119618;22;87526;-59
2024/02/08 12:09:03;;;;;;;23.33;6.97;;;21.70;55.10;;;;;;6118087;22;90851;-58
2024/02/08 12:11:33;;;;;;;24.38;7.63;;;21.70;55.20;;;;;;6119717;23;93885;-58
2024/02/08 12:14:06;;;;;;;23.10;6.68;;;21.60;55.20;;;;;;6119264;22;88015;-58
2024/02/08 12:16:43;;;;;;;22.60;6.78;;;21.60;55.10;;;;;;6120302;22;86810;-58
2024/02/08 12:19:19;;;;;;;15.68;5.65;;;21.60;55.00;;;;;;6119990;22;87956;-59
2024/02/08 12:21:58;;;;;;;24.33;7.32;;;21.60;55.00;;;;;;6118037;22;88562;-59
2024/02/08 12:24:25;;;;;;;21.00;6.30;;;21.60;55.00;;;;;;6117084;22;88444;-58
2024/02/08 12:26:54;;;;;;;20.05;6.18;;;21.60;55.10;;;;;;6118001;23;87177;-58
2024/02/08 12:29:24;;;;;;;20.53;5.93;;;21.50;55.10;;;;;;6117204;22;88288;-59
2024/02/08 12:31:54;;;;;;;25.25;6.57;;;21.50;55.10;;;;;;6119341;22;87878;-59
2024/02/08 12:34:31;;;;;;;20.23;5.68;;;21.50;55.10;;;;;;6117793;22;87323;-59
2024/02/08 12:37:05;;;;;;;18.55;6.10;;;21.50;55.00;;;;;;6117543;22;87834;-59
2024/02/08 12:39:34;;;;;;;19.80;5.88;;;21.50;55.10;;;;;;6119345;22;88017;-58
2024/02/08 12:42:00;;;;;;;;;;;21.50;55.00;;;;;;6120927;22;87894;-59
2024/02/08 12:44:26;;;;;;;17.85;5.93;;;21.50;55.10;;;;;;6121661;22;87488;-58
2024/02/08 12:46:56;;;;;;;21.23;5.15;;;21.50;55.10;;;;;;6119122;22;86981;-58
2024/02/08 12:49:25;;;;;;;19.17;5.30;;;21.50;55.20;;;;;;6114277;22;88575;-59
2024/02/08 12:51:59;;;;;;;20.40;6.10;;;21.50;55.10;;;;;;6119765;22;88897;-59
2024/02/08 12:54:26;;;;;;;14.63;5.47;;;21.50;55.00;;;;;;6120398;22;87808;-59
2024/02/08 12:57:10;;;;;;;17.67;5.20;;;21.50;55.00;;;;;;6117772;22;87516;-59
2024/02/08 12:59:43;;;;;;;15.80;6.25;;;21.50;55.00;;;;;;6120497;23;92923;-58
2024/02/08 13:02:16;;;;;;;17.30;5.40;;;21.40;55.00;;;;;;6117494;22;88156;-58
2024/02/08 13:04:44;;;;;;;18.10;5.40;;;21.40;55.00;;;;;;6116720;22;87542;-59
2024/02/08 13:07:18;;;;;;;22.90;6.82;;;21.40;54.90;;;;;;6119115;22;88919;-59
2024/02/08 13:09:45;;;;;;;15.90;5.57;;;21.40;54.90;;;;;;6116801;22;87953;-58
2024/02/08 13:12:22;;;;;;;19.20;6.03;;;21.40;55.10;;;;;;6119059;22;87778;-59
2024/02/08 13:14:48;;;;;;;15.20;5.80;;;21.40;55.00;;;;;;6120871;22;88102;-58
2024/02/08 13:17:23;;;;;;;17.90;5.18;;;21.40;55.00;;;;;;6117218;22;87310;-59
2024/02/08 13:19:57;;;;;;;15.77;5.70;;;21.40;55.00;;;;;;6117848;22;89093;-58
2024/02/08 13:22:26;;;;;;;17.27;6.47;;;21.40;55.00;;;;;;6115563;22;89050;-59
2024/02/08 13:24:52;;;;;;;16.58;5.32;;;21.40;55.00;;;;;;6116776;22;87527;-58
2024/02/08 13:27:28;;;;;;;15.18;4.60;;;21.30;54.80;;;;;;6117271;22;87037;-59
2024/02/08 13:30:14;;;;;;;14.05;5.05;;;21.40;55.00;;;;;;6120751;22;88114;-59
2024/02/08 13:32:41;;;;;;;12.50;4.22;;;21.40;54.90;;;;;;6121015;23;92264;-59
2024/02/08 13:35:08;;;;;;;23.40;6.65;;;21.40;55.00;;;;;;6117706;22;86880;-59
2024/02/08 13:37:37;;;;;;;18.08;5.72;;;21.30;54.90;;;;;;6117152;22;87401;-59
2024/02/08 13:40:03;;;;;;;23.53;5.50;;;21.30;55.10;;;;;;6118430;22;89177;-59
2024/02/08 13:42:30;;;;;;;15.23;5.68;;;21.30;55.20;;;;;;6117009;22;90990;-59
2024/02/08 13:44:57;;;;;;;19.90;6.20;;;21.30;55.20;;;;;;6118772;22;87218;-58
2024/02/08 13:47:25;;;;;;;13.65;4.22;;;21.30;55.00;;;;;;6116749;22;88505;-59
2024/02/08 13:49:54;;;;;;;14.55;4.60;;;21.30;55.00;;;;;;6119391;22;87997;-59
2024/02/08 13:52:20;;;;;;;13.13;4.70;;;21.30;55.00;;;;;;6117319;22;88545;-59
2024/02/08 13:54:48;;;;;;;13.57;4.35;;;21.30;54.90;;;;;;6117526;22;86955;-59
2024/02/08 13:57:17;;;;;;;10.20;4.45;;;21.30;55.00;;;;;;6115014;22;88827;-58
2024/02/08 13:59:46;;;;;;;;;;;21.30;55.10;;;;;;6118568;22;88244;-59
2024/02/08 14:02:20;;;;;;;14.90;4.85;;;21.30;54.90;;;;;;6120302;22;87839;-58
2024/02/08 14:04:49;;;;;;;11.48;4.07;;;21.30;55.00;;;;;;6115491;22;88286;-59
2024/02/08 14:07:16;;;;;;;;;;;21.30;54.80;;;;;;6116904;22;87935;-58
2024/02/08 14:09:43;;;;;;;12.23;4.78;;;21.30;55.50;;;;;;6119951;22;87496;-59
2024/02/08 14:12:09;;;;;;;12.95;5.05;;;21.30;54.70;;;;;;6117114;22;89797;-59
2024/02/08 14:14:43;;;;;;;11.75;4.20;;;21.30;55.00;;;;;;6118009;22;87235;-59
2024/02/08 14:17:12;;;;;;;11.82;3.75;;;21.30;54.90;;;;;;6117410;22;87358;-58
2024/02/08 14:19:42;;;;;;;;;;;21.20;54.80;;;;;;6115606;22;87809;-59
2024/02/08 14:22:08;;;;;;;12.13;3.72;;;21.30;54.70;;;;;;6112377;22;88580;-60
2024/02/08 14:24:38;;;;;;;10.10;4.07;;;21.30;54.80;;;;;;6111560;22;87147;-59
2024/02/08 14:27:05;;;;;;;10.98;3.67;;;21.30;54.90;;;;;;6116010;22;87655;-59
2024/02/08 14:29:38;;;;;;;11.40;4.20;;;21.50;54.70;;;;;;6115439;22;89252;-59
2024/02/08 14:32:07;;;;;;;11.40;4.15;;;21.50;54.50;;;;;;6119029;22;88968;-59
2024/02/08 14:34:36;;;;;;;10.52;3.22;;;21.60;54.50;;;;;;6119933;22;87230;-60
2024/02/08 14:37:06;;;;;;;10.55;3.85;;;21.70;54.10;;;;;;6117588;22;87785;-60
2024/02/08 14:39:33;;;;;;;8.60;3.10;;;21.80;53.90;;;;;;6120261;22;88665;-60
2024/02/08 14:42:11;;;;;;;7.10;2.75;;;21.80;53.90;;;;;;6114670;22;88761;-60
2024/02/08 14:44:41;;;;;;;9.95;3.40;;;21.90;53.90;;;;;;6120001;23;87039;-59
2024/02/08 14:47:08;;;;;;;9.40;3.75;;;22.00;53.90;;;;;;6121810;22;87439;-59
2024/02/08 14:49:54;;;;;;;16.33;3.60;;;22.10;53.80;;;;;;6120528;22;88067;-59
2024/02/08 14:52:44;;;;;;;6.45;3.25;;;22.10;53.80;;;;;;6120054;22;87835;-58
2024/02/08 14:55:10;;;;;;;9.52;3.80;;;22.20;53.70;;;;;;6119633;22;88071;-58
2024/02/08 14:57:42;;;;;;;9.18;3.30;;;22.20;53.70;;;;;;6112034;22;87778;-59
2024/02/08 15:03:07;;;;;;;6.97;2.80;;;22.20;53.70;;;;;;6119676;22;88165;-59
2024/02/08 15:06:38;;;;;;;11.10;3.35;;;22.30;53.30;;;;;;6121291;23;87428;-59
2024/02/08 15:11:08;;;;;;;12.27;3.70;;;22.40;52.80;;;;;;6114393;22;87011;-59
2024/02/08 15:13:49;;;;;;;11.27;3.58;;;22.40;52.60;;;;;;6119903;22;88322;-60
2024/02/08 15:16:30;;;;;;;11.40;3.47;;;22.40;52.40;;;;;;6118268;22;87001;-60
2024/02/08 15:19:00;;;;;;;11.90;3.92;;;22.50;53.30;;;;;;6119729;22;87249;-59
2024/02/08 15:21:34;;;;;;;9.77;3.53;;;22.50;53.00;;;;;;6092106;23;89631;-60
2024/02/08 15:26:50;;;;;;;12.82;3.60;;;22.60;53.90;;;;;;6120658;22;88143;-60